Time;durP1;ratioP1;P1;durP2;ratioP2;P2;SDS_P1;SDS_P2;PMS_P1;PMS_P2;Temp;Humidity;BMP_temperature;BMP_pressure;BME280_temperature;BME280_humidity;BME280_pressure;Samples;Min_cycle;Max_cycle;Signal;HPM_P1;HPM_P2
2021/11/04 00:00:34;;;;;;;108.40;51.20;;;7.80;99.90;;;;;;5057950;28;20040;-64
2021/11/04 00:03:01;;;;;;;107.65;49.50;;;7.80;99.90;;;;;;5049352;28;20479;-61
2021/11/04 00:05:27;;;;;;;104.10;49.15;;;7.80;99.90;;;;;;5056984;28;20382;-63
2021/11/04 00:07:57;;;;;;;110.57;51.08;;;7.80;99.90;;;;;;5047242;28;20395;-64
2021/11/04 00:10:24;;;;;;;112.28;50.38;;;7.80;99.90;;;;;;5048774;28;20028;-64
2021/11/04 00:12:49;;;;;;;111.90;51.03;;;7.80;99.90;;;;;;5047951;28;20027;-64
2021/11/04 00:15:15;;;;;;;110.25;49.00;;;7.70;99.90;;;;;;5045131;28;20020;-62
2021/11/04 00:17:41;;;;;;;113.00;50.00;;;7.70;99.90;;;;;;5042981;28;20690;-62
2021/11/04 00:20:09;;;;;;;123.72;49.10;;;7.70;99.90;;;;;;5043248;28;20036;-63
2021/11/04 00:22:35;;;;;;;116.13;48.13;;;7.70;99.90;;;;;;5048605;28;20025;-64
2021/11/04 00:25:00;;;;;;;115.60;49.85;;;7.70;99.90;;;;;;5028160;28;20059;-64
2021/11/04 00:27:26;;;;;;;113.20;47.83;;;7.70;99.90;;;;;;5039724;28;20036;-64
2021/11/04 00:29:51;;;;;;;116.53;50.08;;;7.70;99.90;;;;;;5041056;28;20064;-62
2021/11/04 00:32:17;;;;;;;118.10;49.17;;;7.70;99.90;;;;;;5041269;28;20029;-63
2021/11/04 00:34:43;;;;;;;112.57;47.00;;;7.70;99.90;;;;;;5051311;28;20387;-62
2021/11/04 00:37:08;;;;;;;116.75;48.55;;;7.60;99.90;;;;;;5055416;28;20056;-63
2021/11/04 00:39:34;;;;;;;118.32;47.78;;;7.60;99.90;;;;;;5049543;28;20546;-64
2021/11/04 00:42:00;;;;;;;117.20;49.33;;;7.60;99.90;;;;;;5045289;28;20793;-64
2021/11/04 00:44:25;;;;;;;116.10;47.80;;;7.60;99.90;;;;;;5049930;28;20048;-64
2021/11/04 00:46:51;;;;;;;115.20;47.47;;;7.70;99.90;;;;;;5047084;28;20365;-64
2021/11/04 00:49:16;;;;;;;108.43;46.42;;;7.60;99.90;;;;;;5047868;28;20064;-63
2021/11/04 00:51:42;;;;;;;106.03;45.60;;;7.60;99.90;;;;;;5050086;28;20493;-64
2021/11/04 00:54:08;;;;;;;105.35;45.25;;;7.60;99.90;;;;;;5052281;28;20047;-64
2021/11/04 00:56:33;;;;;;;106.03;44.42;;;7.60;99.90;;;;;;5054492;28;20079;-63
2021/11/04 00:58:59;;;;;;;107.95;46.00;;;7.60;99.90;;;;;;5046503;28;20030;-63
2021/11/04 01:01:24;;;;;;;107.65;45.22;;;7.60;99.90;;;;;;5052791;28;20564;-64
2021/11/04 01:03:52;;;;;;;113.18;46.88;;;7.60;99.90;;;;;;5046699;28;20080;-64
2021/11/04 01:06:20;;;;;;;99.65;42.20;;;7.60;99.90;;;;;;5051228;28;20502;-63
2021/11/04 01:08:46;;;;;;;118.95;47.47;;;7.60;99.90;;;;;;5050341;28;20044;-64
2021/11/04 01:11:11;;;;;;;118.95;46.95;;;7.60;99.90;;;;;;5050615;28;20033;-63
2021/11/04 01:13:37;;;;;;;116.60;45.97;;;7.60;99.90;;;;;;5044718;28;20033;-64
2021/11/04 01:16:04;;;;;;;105.65;43.70;;;7.60;99.90;;;;;;5057600;28;20033;-62
2021/11/04 01:18:29;;;;;;;107.75;45.33;;;7.60;99.90;;;;;;5051569;28;20389;-64
2021/11/04 01:20:55;;;;;;;108.97;44.15;;;7.60;99.90;;;;;;5053172;28;20029;-62
2021/11/04 01:23:20;;;;;;;106.43;45.25;;;7.60;99.90;;;;;;5043991;28;20064;-64
2021/11/04 01:25:47;;;;;;;109.07;45.83;;;7.50;99.90;;;;;;5050330;28;20494;-64
2021/11/04 01:28:13;;;;;;;110.45;45.05;;;7.50;99.90;;;;;;5052208;28;20602;-63
2021/11/04 01:30:39;;;;;;;110.53;46.72;;;7.60;99.90;;;;;;5040302;28;20063;-64
2021/11/04 01:33:05;;;;;;;124.07;48.75;;;7.50;99.90;;;;;;5039903;28;20446;-63
2021/11/04 01:35:31;;;;;;;112.07;46.10;;;7.50;99.90;;;;;;5053405;28;20112;-63
2021/11/04 01:38:02;;;;;;;121.32;47.53;;;7.50;99.90;;;;;;5049965;28;20127;-62
2021/11/04 01:40:27;;;;;;;113.88;47.67;;;7.50;99.90;;;;;;5044810;28;20025;-63
2021/11/04 01:42:54;;;;;;;122.53;49.97;;;7.50;99.90;;;;;;5050314;28;20043;-63
2021/11/04 01:45:20;;;;;;;115.28;46.65;;;7.50;99.90;;;;;;5053471;28;20462;-64
2021/11/04 01:47:46;;;;;;;114.00;47.13;;;7.50;99.90;;;;;;5047179;28;20113;-64
2021/11/04 01:50:20;;;;;;;113.20;45.25;;;7.50;99.90;;;;;;5046119;28;20029;-64
2021/11/04 01:52:47;;;;;;;121.80;46.67;;;7.50;99.90;;;;;;5046491;28;20075;-64
2021/11/04 01:55:24;;;;;;;111.95;44.42;;;7.50;99.90;;;;;;5048483;28;20057;-64
2021/11/04 01:57:51;;;;;;;106.60;42.60;;;7.50;99.90;;;;;;5021710;28;20530;-64
2021/11/04 02:00:21;;;;;;;108.18;45.70;;;7.50;99.90;;;;;;5046930;28;20037;-63
2021/11/04 02:02:57;;;;;;;107.70;45.38;;;7.50;99.90;;;;;;5040784;28;20025;-62
2021/11/04 02:05:33;;;;;;;102.43;44.13;;;7.50;99.90;;;;;;5051825;28;20055;-64
2021/11/04 02:08:06;;;;;;;103.03;42.65;;;7.50;99.90;;;;;;5052483;28;20079;-64
2021/11/04 02:10:41;;;;;;;102.47;44.42;;;7.50;99.90;;;;;;5048546;28;20085;-64
2021/11/04 02:13:25;;;;;;;105.53;42.58;;;7.40;99.90;;;;;;5047544;28;20021;-63
2021/11/04 02:15:53;;;;;;;101.32;42.83;;;7.40;99.90;;;;;;5044568;28;20574;-63
2021/11/04 02:18:21;;;;;;;108.15;43.35;;;7.40;99.90;;;;;;5056465;28;20127;-63
2021/11/04 02:21:09;;;;;;;97.72;40.78;;;7.40;99.90;;;;;;5045214;28;20025;-63
2021/11/04 02:23:39;;;;;;;108.50;42.22;;;7.40;99.90;;;;;;5050590;28;20024;-64
2021/11/04 02:26:05;;;;;;;108.10;44.63;;;7.40;99.90;;;;;;5048478;28;20025;-64
2021/11/04 02:28:33;;;;;;;105.65;44.13;;;7.40;99.90;;;;;;5052703;28;20013;-62
2021/11/04 02:31:01;;;;;;;107.78;43.08;;;7.40;99.90;;;;;;5042990;28;20110;-63
2021/11/04 02:33:27;;;;;;;112.65;43.85;;;7.40;99.90;;;;;;5032955;28;20124;-64
2021/11/04 02:35:53;;;;;;;109.68;44.58;;;7.40;99.90;;;;;;5040678;28;20108;-63
2021/11/04 02:38:21;;;;;;;115.22;43.88;;;7.40;99.90;;;;;;5045936;28;20410;-63
2021/11/04 02:40:48;;;;;;;104.35;43.10;;;7.40;99.90;;;;;;5050726;28;20029;-63
2021/11/04 02:43:15;;;;;;;115.30;43.78;;;7.40;99.90;;;;;;5052871;28;20057;-63
2021/11/04 02:45:41;;;;;;;107.70;42.67;;;7.40;99.90;;;;;;5044065;28;20363;-63
2021/11/04 02:48:07;;;;;;;109.55;42.97;;;7.30;99.90;;;;;;5054415;28;20510;-62
2021/11/04 02:50:33;;;;;;;112.13;42.88;;;7.30;99.90;;;;;;5056451;28;20031;-64
2021/11/04 02:52:59;;;;;;;118.47;44.13;;;7.30;99.90;;;;;;5051573;28;20025;-63
2021/11/04 02:55:36;;;;;;;109.07;43.65;;;7.30;99.90;;;;;;5046767;28;20029;-64
2021/11/04 02:58:07;;;;;;;111.55;42.08;;;7.30;99.90;;;;;;5046876;28;20488;-64
2021/11/04 03:00:36;;;;;;;101.05;39.78;;;7.30;99.90;;;;;;5046684;28;20339;-63
2021/11/04 03:03:01;;;;;;;103.28;40.13;;;7.30;99.90;;;;;;5046964;28;20104;-64
2021/11/04 03:05:27;;;;;;;111.97;44.10;;;7.30;99.90;;;;;;5052775;28;20155;-63
2021/11/04 03:07:53;;;;;;;103.15;42.00;;;7.30;99.90;;;;;;5050871;28;20017;-63
2021/11/04 03:10:19;;;;;;;110.55;40.17;;;7.30;99.90;;;;;;5060661;28;20402;-62
2021/11/04 03:12:45;;;;;;;104.75;40.05;;;7.30;99.90;;;;;;5049796;28;20025;-64
2021/11/04 03:15:16;;;;;;;101.38;40.00;;;7.30;99.90;;;;;;5050241;28;20112;-64
2021/11/04 03:17:43;;;;;;;101.35;39.78;;;7.20;99.90;;;;;;5050218;28;20094;-63
2021/11/04 03:20:10;;;;;;;110.28;41.65;;;7.20;99.90;;;;;;5049583;28;20476;-64
2021/11/04 03:22:37;;;;;;;104.90;40.28;;;7.20;99.90;;;;;;5049018;28;20017;-64
2021/11/04 03:25:04;;;;;;;105.13;41.03;;;7.20;99.90;;;;;;5053664;28;20021;-64
2021/11/04 03:27:32;;;;;;;117.25;45.83;;;7.20;99.90;;;;;;5049857;28;20023;-64
2021/11/04 03:30:00;;;;;;;99.57;39.65;;;7.20;99.90;;;;;;5056002;28;20103;-64
2021/11/04 03:32:26;;;;;;;106.13;41.80;;;7.20;99.90;;;;;;5041612;28;20079;-63
2021/11/04 03:34:52;;;;;;;113.03;43.35;;;7.20;99.90;;;;;;5040914;28;20044;-63
2021/11/04 03:37:20;;;;;;;116.45;45.22;;;7.20;99.90;;;;;;5042710;28;20029;-63
2021/11/04 03:39:47;;;;;;;109.88;41.55;;;7.20;99.90;;;;;;5041249;28;20029;-63
2021/11/04 03:42:15;;;;;;;112.45;44.13;;;7.20;99.90;;;;;;5048428;28;20021;-64
2021/11/04 03:47:07;;;;;;;107.68;41.85;;;7.10;99.90;;;;;;5090169;23;20060;-61
2021/11/04 03:49:34;;;;;;;120.38;44.72;;;7.10;99.90;;;;;;5086348;28;20020;-60
2021/11/04 03:51:59;;;;;;;118.38;44.22;;;7.10;99.90;;;;;;5079583;28;20020;-61
2021/11/04 03:54:26;;;;;;;116.28;44.42;;;7.20;99.90;;;;;;5083478;28;20039;-60
2021/11/04 03:56:53;;;;;;;110.75;41.33;;;7.20;99.90;;;;;;5073520;28;20025;-61
2021/11/04 03:59:20;;;;;;;109.50;42.40;;;7.20;99.90;;;;;;5070606;28;20032;-60
2021/11/04 04:01:46;;;;;;;104.38;40.50;;;7.20;99.90;;;;;;5071821;28;20024;-61
2021/11/04 04:04:12;;;;;;;122.85;42.53;;;7.20;99.90;;;;;;5070513;28;20024;-57
2021/11/04 04:06:38;;;;;;;114.53;42.28;;;7.10;99.90;;;;;;5075931;28;20422;-60
2021/11/04 04:09:06;;;;;;;109.60;40.30;;;7.10;99.90;;;;;;5069657;28;20028;-61
2021/11/04 04:11:32;;;;;;;112.53;41.13;;;7.10;99.90;;;;;;5069830;28;20025;-61
2021/11/04 04:13:57;;;;;;;106.95;38.88;;;7.10;99.90;;;;;;5071596;28;21803;-61
2021/11/04 04:16:24;;;;;;;109.90;38.83;;;7.10;99.90;;;;;;5062537;28;20036;-61
2021/11/04 04:18:50;;;;;;;103.75;37.97;;;7.10;99.90;;;;;;5067382;28;20020;-60
2021/11/04 04:21:16;;;;;;;116.10;42.00;;;7.10;99.90;;;;;;5069780;28;20509;-60
2021/11/04 04:23:42;;;;;;;105.65;36.35;;;7.10;99.90;;;;;;5066698;28;20491;-59
2021/11/04 04:26:08;;;;;;;99.60;37.90;;;7.00;99.90;;;;;;5070097;28;20038;-61
2021/11/04 04:28:35;;;;;;;110.70;39.47;;;7.10;99.90;;;;;;5070592;28;20028;-61
2021/11/04 04:31:00;;;;;;;105.10;36.38;;;7.00;99.90;;;;;;5069070;28;20029;-59
2021/11/04 04:33:26;;;;;;;109.53;37.58;;;7.00;99.90;;;;;;5070263;28;20052;-59
2021/11/04 04:35:52;;;;;;;95.28;34.15;;;7.00;99.90;;;;;;5070148;28;20099;-61
2021/11/04 04:38:18;;;;;;;102.25;33.17;;;7.10;99.90;;;;;;5066348;28;20028;-61
2021/11/04 04:40:44;;;;;;;105.72;37.00;;;7.00;99.90;;;;;;5067023;28;20482;-61
2021/11/04 04:43:10;;;;;;;103.50;34.88;;;7.00;99.90;;;;;;5059378;28;20078;-58
2021/11/04 04:45:36;;;;;;;90.57;35.33;;;7.00;99.90;;;;;;5069671;28;20021;-61
2021/11/04 04:48:02;;;;;;;95.10;34.42;;;7.00;99.90;;;;;;5068871;28;20603;-61
2021/11/04 04:50:27;;;;;;;91.82;34.47;;;7.00;99.90;;;;;;5067662;28;20020;-60
2021/11/04 04:52:53;;;;;;;100.43;34.00;;;7.00;99.90;;;;;;5068146;28;20024;-61
2021/11/04 04:55:18;;;;;;;103.57;37.00;;;6.90;99.90;;;;;;5069784;28;20423;-61
2021/11/04 04:57:44;;;;;;;101.65;35.58;;;6.90;99.90;;;;;;5068516;28;20029;-60
2021/11/04 05:00:12;;;;;;;101.00;36.08;;;6.90;99.90;;;;;;5066869;28;20035;-57
2021/11/04 05:02:39;;;;;;;96.68;36.83;;;6.90;99.90;;;;;;5067444;28;20036;-60
2021/11/04 05:05:05;;;;;;;104.78;37.38;;;6.90;99.90;;;;;;5069929;28;20478;-61
2021/11/04 05:07:30;;;;;;;106.78;39.38;;;6.90;99.90;;;;;;5071420;28;20033;-60
2021/11/04 05:09:56;;;;;;;104.80;36.10;;;6.90;99.90;;;;;;5068599;28;20047;-61
2021/11/04 05:12:21;;;;;;;109.85;37.92;;;6.90;99.90;;;;;;5073596;28;20036;-61
2021/11/04 05:14:47;;;;;;;113.85;38.50;;;6.80;99.90;;;;;;5068107;28;20033;-59
2021/11/04 05:17:12;;;;;;;113.25;39.67;;;6.90;99.90;;;;;;5068495;28;20105;-60
2021/11/04 05:19:38;;;;;;;122.85;42.38;;;6.90;99.90;;;;;;5070631;28;20098;-61
2021/11/04 05:22:04;;;;;;;121.95;43.05;;;6.90;99.90;;;;;;5069209;28;20028;-61
2021/11/04 05:24:34;;;;;;;114.25;39.10;;;6.90;99.90;;;;;;5069120;28;20063;-59
2021/11/04 05:27:02;;;;;;;137.45;44.15;;;6.90;99.90;;;;;;5067713;28;20074;-61
2021/11/04 05:29:27;;;;;;;125.50;42.05;;;6.90;99.90;;;;;;5065136;28;20518;-62
2021/11/04 05:31:53;;;;;;;135.70;44.88;;;6.90;99.90;;;;;;5071955;28;20092;-60
2021/11/04 05:34:19;;;;;;;126.97;43.72;;;6.90;99.90;;;;;;5068576;28;20024;-61
2021/11/04 05:36:45;;;;;;;136.43;44.05;;;6.90;99.90;;;;;;5069177;28;20082;-61
2021/11/04 05:39:10;;;;;;;140.35;45.55;;;6.80;99.90;;;;;;5067246;28;20126;-59
2021/11/04 05:41:36;;;;;;;133.27;42.65;;;6.80;99.90;;;;;;5061342;28;20024;-61
2021/11/04 05:44:01;;;;;;;142.05;45.53;;;6.90;99.90;;;;;;5059572;28;20546;-60
2021/11/04 05:46:27;;;;;;;151.57;44.38;;;6.80;99.90;;;;;;5062448;28;20976;-60
2021/11/04 05:48:52;;;;;;;136.93;43.75;;;6.90;99.90;;;;;;5067460;28;20552;-60
2021/11/04 05:51:18;;;;;;;148.50;45.25;;;6.90;99.90;;;;;;5067829;28;20457;-60
2021/11/04 05:53:43;;;;;;;145.77;44.17;;;6.90;99.90;;;;;;5069965;28;20035;-59
2021/11/04 05:56:09;;;;;;;165.02;45.40;;;6.90;99.90;;;;;;5067182;28;20386;-60
2021/11/04 05:58:35;;;;;;;166.13;48.65;;;7.00;99.90;;;;;;5065548;28;20029;-61
2021/11/04 06:01:01;;;;;;;172.20;54.92;;;7.00;99.90;;;;;;5067497;28;20039;-60
2021/11/04 06:03:27;;;;;;;175.38;57.70;;;6.90;99.90;;;;;;5068951;28;20017;-58
2021/11/04 06:05:52;;;;;;;181.88;56.95;;;6.90;99.90;;;;;;5071249;28;20070;-60
2021/11/04 06:08:18;;;;;;;183.02;58.83;;;6.90;99.90;;;;;;5069904;28;20116;-62
2021/11/04 06:10:43;;;;;;;185.23;59.60;;;6.90;99.90;;;;;;5070349;28;20052;-60
2021/11/04 06:13:09;;;;;;;180.60;57.20;;;6.80;99.90;;;;;;5069584;28;20052;-61
2021/11/04 06:15:35;;;;;;;184.35;57.70;;;6.80;99.90;;;;;;5069588;28;20040;-61
2021/11/04 06:18:01;;;;;;;185.27;58.90;;;6.70;99.90;;;;;;5072159;28;20036;-62
2021/11/04 06:20:26;;;;;;;174.48;59.00;;;6.70;99.90;;;;;;5071262;28;20033;-60
2021/11/04 06:22:52;;;;;;;166.75;55.97;;;6.70;99.90;;;;;;5074415;28;20543;-60
2021/11/04 06:25:17;;;;;;;183.05;56.00;;;6.70;99.90;;;;;;5071419;28;20490;-61
2021/11/04 06:27:43;;;;;;;183.88;55.10;;;6.80;99.90;;;;;;5081297;28;20477;-62
2021/11/04 06:30:10;;;;;;;176.00;54.88;;;6.70;99.90;;;;;;5075012;28;20032;-60
2021/11/04 06:32:36;;;;;;;171.07;55.67;;;6.70;99.90;;;;;;5078736;28;20093;-58
2021/11/04 06:35:04;;;;;;;168.60;56.42;;;6.70;99.90;;;;;;5076294;28;20056;-57
2021/11/04 06:37:29;;;;;;;162.43;55.05;;;6.70;99.90;;;;;;5070408;28;20052;-62
2021/11/04 06:39:55;;;;;;;171.70;53.63;;;6.70;99.90;;;;;;5072912;28;20068;-59
2021/11/04 06:42:21;;;;;;;161.88;51.30;;;6.60;99.90;;;;;;5069370;28;20029;-60
2021/11/04 06:44:46;;;;;;;164.27;50.53;;;6.60;99.90;;;;;;5070523;28;20032;-60
2021/11/04 06:47:36;;;;;;;154.93;52.35;;;6.60;99.90;;;;;;5076034;28;20020;-60
2021/11/04 06:50:04;;;;;;;144.95;52.92;;;6.60;99.90;;;;;;5072394;28;20066;-59
2021/11/04 06:52:36;;;;;;;153.27;49.92;;;6.60;99.90;;;;;;5071799;28;20016;-61
2021/11/04 06:55:04;;;;;;;153.05;55.25;;;6.60;99.90;;;;;;5072197;28;20029;-60
2021/11/04 06:57:33;;;;;;;146.00;50.03;;;6.50;99.90;;;;;;5071967;28;20085;-61
2021/11/04 07:00:03;;;;;;;159.98;53.10;;;6.50;99.90;;;;;;5071694;28;20040;-60
2021/11/04 07:02:41;;;;;;;156.27;51.55;;;6.50;99.90;;;;;;5072416;28;20498;-60
2021/11/04 07:05:08;;;;;;;159.45;54.10;;;6.50;99.90;;;;;;5074229;28;20040;-60
2021/11/04 07:07:45;;;;;;;158.98;52.95;;;6.50;99.90;;;;;;5072035;28;20020;-60
2021/11/04 07:10:12;;;;;;;161.55;53.97;;;6.50;99.90;;;;;;5072491;28;20056;-60
2021/11/04 07:12:48;;;;;;;152.25;52.28;;;6.40;99.90;;;;;;5071173;28;20127;-58
2021/11/04 07:15:19;;;;;;;158.27;52.03;;;6.40;99.90;;;;;;5069545;28;20016;-60
2021/11/04 07:17:46;;;;;;;147.60;52.70;;;6.40;99.90;;;;;;5066429;28;20032;-61
2021/11/04 07:20:14;;;;;;;146.50;50.33;;;6.40;99.90;;;;;;5070654;28;20097;-61
2021/11/04 07:22:53;;;;;;;155.15;51.50;;;6.40;99.90;;;;;;5071867;28;20013;-60
2021/11/04 07:25:21;;;;;;;145.95;51.38;;;6.40;99.90;;;;;;5074585;28;20406;-61
2021/11/04 07:27:59;;;;;;;151.75;52.42;;;6.40;99.90;;;;;;5072349;28;20028;-59
2021/11/04 07:30:28;;;;;;;155.18;50.33;;;6.40;99.90;;;;;;5072317;28;20029;-60
2021/11/04 07:32:55;;;;;;;149.50;49.50;;;6.40;99.90;;;;;;5070712;28;20020;-59
2021/11/04 07:35:24;;;;;;;138.60;49.85;;;6.40;99.90;;;;;;5071546;28;20063;-61
2021/11/04 07:37:50;;;;;;;146.70;49.25;;;6.40;99.90;;;;;;5070964;28;20097;-59
2021/11/04 07:40:19;;;;;;;139.40;48.45;;;6.40;99.90;;;;;;5071688;28;20057;-61
2021/11/04 07:42:45;;;;;;;133.90;46.55;;;6.40;99.90;;;;;;5070165;28;20069;-60
2021/11/04 07:45:11;;;;;;;155.60;51.65;;;6.30;99.90;;;;;;5070875;28;20082;-60
2021/11/04 07:47:38;;;;;;;144.73;48.40;;;6.40;99.90;;;;;;5071854;28;20032;-59
2021/11/04 07:50:05;;;;;;;140.98;49.75;;;6.40;99.90;;;;;;5069686;28;20391;-59
2021/11/04 07:52:31;;;;;;;141.88;47.38;;;6.40;99.90;;;;;;5071038;28;20024;-60
2021/11/04 07:55:00;;;;;;;140.18;46.78;;;6.40;99.90;;;;;;5073256;28;20395;-60
2021/11/04 07:57:27;;;;;;;143.18;46.85;;;6.40;99.90;;;;;;5077912;28;20029;-57
2021/11/04 07:59:52;;;;;;;125.35;45.90;;;6.50;99.90;;;;;;5071746;28;20024;-61
2021/11/04 08:02:18;;;;;;;134.70;45.90;;;6.50;99.90;;;;;;5071411;28;20047;-59
2021/11/04 08:04:43;;;;;;;117.45;44.30;;;6.50;99.90;;;;;;5071130;28;20028;-57
2021/11/04 08:07:09;;;;;;;132.25;45.28;;;6.50;99.90;;;;;;5071763;28;20036;-61
2021/11/04 08:09:34;;;;;;;131.73;47.83;;;6.50;99.90;;;;;;5073927;28;20395;-61
2021/11/04 08:12:00;;;;;;;116.07;44.38;;;6.50;99.90;;;;;;5071078;28;20016;-61
2021/11/04 08:14:26;;;;;;;126.60;44.55;;;6.50;99.90;;;;;;5071101;28;20052;-60
2021/11/04 08:16:51;;;;;;;127.53;43.92;;;6.50;99.90;;;;;;5071943;28;20017;-60
2021/11/04 08:19:17;;;;;;;110.10;40.75;;;6.30;99.90;;;;;;5071968;28;20032;-60
2021/11/04 08:21:43;;;;;;;122.88;43.88;;;6.30;99.90;;;;;;5071309;28;20028;-56
2021/11/04 08:24:08;;;;;;;113.55;41.05;;;6.40;99.90;;;;;;5070117;28;20039;-60
2021/11/04 08:26:34;;;;;;;111.53;43.22;;;6.40;99.90;;;;;;5071662;28;20028;-59
2021/11/04 08:29:01;;;;;;;115.40;42.08;;;6.50;99.90;;;;;;5071745;28;20029;-62
2021/11/04 08:31:28;;;;;;;115.97;41.15;;;6.50;99.90;;;;;;5071006;28;20103;-58
2021/11/04 08:33:54;;;;;;;110.35;40.85;;;6.50;99.90;;;;;;5071672;28;20021;-61
2021/11/04 08:36:19;;;;;;;109.75;39.65;;;6.60;99.90;;;;;;5070585;28;20130;-59
2021/11/04 08:38:46;;;;;;;94.93;39.58;;;6.60;99.90;;;;;;5070090;28;20741;-59
2021/11/04 08:41:12;;;;;;;109.20;39.35;;;6.70;99.90;;;;;;5071472;28;20063;-59
2021/11/04 08:43:37;;;;;;;112.55;41.28;;;6.70;99.90;;;;;;5065377;28;20044;-61
2021/11/04 08:46:03;;;;;;;107.95;39.67;;;6.80;99.90;;;;;;5070798;28;20063;-58
2021/11/04 08:48:29;;;;;;;105.15;38.72;;;6.90;99.90;;;;;;5070385;28;20056;-60
2021/11/04 08:50:54;;;;;;;101.88;36.97;;;7.00;99.90;;;;;;5070579;28;20036;-59
2021/11/04 08:53:20;;;;;;;104.05;38.63;;;7.00;99.90;;;;;;5069477;28;20631;-61
2021/11/04 08:55:46;;;;;;;91.22;36.55;;;7.00;99.90;;;;;;5070677;28;20036;-59
2021/11/04 08:58:13;;;;;;;83.63;32.55;;;7.10;99.90;;;;;;5070814;28;20020;-60
2021/11/04 09:00:40;;;;;;;91.63;33.10;;;7.10;99.90;;;;;;5071965;28;20659;-61
2021/11/04 09:03:05;;;;;;;91.07;34.60;;;7.10;99.90;;;;;;5070293;28;20071;-60
2021/11/04 09:05:31;;;;;;;96.50;35.03;;;7.10;99.90;;;;;;5070815;28;20052;-61
2021/11/04 09:07:57;;;;;;;80.25;31.58;;;7.20;99.90;;;;;;5070346;28;20036;-59
2021/11/04 09:10:22;;;;;;;91.38;34.33;;;7.10;99.90;;;;;;5070569;28;20108;-58
2021/11/04 09:12:49;;;;;;;90.72;35.60;;;7.20;99.90;;;;;;5070487;28;20474;-60
2021/11/04 09:15:15;;;;;;;90.28;33.13;;;7.20;99.90;;;;;;5069989;28;20086;-60
2021/11/04 09:17:42;;;;;;;92.20;33.83;;;7.20;99.90;;;;;;5070245;28;20025;-59
2021/11/04 09:20:11;;;;;;;93.28;34.88;;;7.20;99.90;;;;;;5069869;28;20029;-59
2021/11/04 09:22:37;;;;;;;94.65;32.10;;;7.30;99.90;;;;;;5069730;28;20043;-61
2021/11/04 09:25:04;;;;;;;94.57;32.88;;;7.30;99.90;;;;;;5069682;28;20479;-60
2021/11/04 09:27:29;;;;;;;96.95;35.15;;;7.40;99.90;;;;;;5070256;28;20028;-61
2021/11/04 09:29:56;;;;;;;92.47;32.53;;;7.50;99.90;;;;;;5071086;28;20028;-60
2021/11/04 09:32:23;;;;;;;97.10;32.90;;;7.40;99.90;;;;;;5072161;28;20048;-59
2021/11/04 09:34:49;;;;;;;95.03;32.55;;;7.40;99.90;;;;;;5069112;28;20532;-60
2021/11/04 09:37:17;;;;;;;95.03;32.28;;;7.50;99.90;;;;;;5069421;28;20120;-63
2021/11/04 09:39:43;;;;;;;89.70;32.70;;;7.50;99.90;;;;;;5069363;28;20082;-60
2021/11/04 09:42:09;;;;;;;99.32;34.95;;;7.60;99.90;;;;;;5070276;28;20033;-58
2021/11/04 09:44:34;;;;;;;97.03;32.85;;;7.60;99.90;;;;;;5067367;28;20840;-61
2021/11/04 09:47:00;;;;;;;91.85;34.03;;;7.60;99.90;;;;;;5081059;22;20123;-61
2021/11/04 09:49:29;;;;;;;104.13;37.35;;;7.70;99.90;;;;;;5069315;28;20445;-61
2021/11/04 09:51:58;;;;;;;102.47;35.13;;;7.80;99.90;;;;;;5069139;28;20548;-63
2021/11/04 09:54:24;;;;;;;92.80;33.60;;;7.80;99.90;;;;;;5065053;28;20033;-63
2021/11/04 09:56:50;;;;;;;97.32;32.88;;;7.80;99.90;;;;;;5067257;28;20043;-64
2021/11/04 09:59:15;;;;;;;89.45;33.35;;;7.90;99.90;;;;;;5056631;28;20397;-62
2021/11/04 10:01:46;;;;;;;96.72;35.35;;;8.00;99.90;;;;;;5060075;28;20025;-63
2021/11/04 10:04:12;;;;;;;88.88;34.65;;;8.00;99.90;;;;;;5051941;28;20507;-64
2021/11/04 10:06:40;;;;;;;89.38;32.25;;;8.10;99.90;;;;;;5051155;28;20029;-64
2021/11/04 10:09:09;;;;;;;94.57;34.92;;;8.10;99.90;;;;;;5061154;28;20025;-62
2021/11/04 10:11:40;;;;;;;96.20;35.08;;;8.10;99.90;;;;;;5066300;28;20494;-64
2021/11/04 10:14:11;;;;;;;105.22;37.88;;;8.10;99.90;;;;;;5055578;28;20044;-63
2021/11/04 10:16:37;;;;;;;105.35;39.25;;;8.00;99.90;;;;;;5057065;28;20032;-64
2021/11/04 10:19:15;;;;;;;106.40;39.78;;;8.00;99.90;;;;;;5054688;28;20125;-66
2021/11/04 10:21:44;;;;;;;111.18;38.05;;;8.00;99.90;;;;;;5069422;28;20017;-63
2021/11/04 10:24:19;;;;;;;120.25;41.92;;;8.10;99.90;;;;;;5050260;28;20046;-64
2021/11/04 10:26:45;;;;;;;108.85;42.40;;;8.20;99.90;;;;;;5049132;28;20060;-65
2021/11/04 10:29:12;;;;;;;105.57;37.97;;;8.20;99.90;;;;;;5057879;28;20032;-65
2021/11/04 10:31:43;;;;;;;99.22;38.65;;;8.40;99.90;;;;;;5062560;28;20111;-62
2021/11/04 10:34:36;;;;;;;113.95;40.40;;;8.50;99.90;;;;;;5049396;28;20032;-61
2021/11/04 10:37:19;;;;;;;106.97;39.10;;;8.60;99.90;;;;;;5046832;28;20087;-64
2021/11/04 10:39:46;;;;;;;109.60;41.47;;;8.60;99.90;;;;;;5051849;28;20028;-62
2021/11/04 10:42:12;;;;;;;107.55;38.63;;;8.50;99.90;;;;;;5066894;28;20020;-64
2021/11/04 10:44:38;;;;;;;92.75;37.08;;;8.50;99.90;;;;;;5053338;28;20173;-62
2021/11/04 10:47:04;;;;;;;96.30;37.22;;;8.60;99.90;;;;;;5055437;28;20538;-61
2021/11/04 10:49:41;;;;;;;107.30;39.72;;;8.60;99.90;;;;;;5052451;28;20025;-63
2021/11/04 10:52:08;;;;;;;97.63;37.75;;;8.70;99.90;;;;;;5069690;28;20028;-63
2021/11/04 10:54:51;;;;;;;104.60;37.33;;;8.70;99.90;;;;;;5059981;28;20498;-62
2021/11/04 10:57:40;;;;;;;96.55;37.33;;;8.70;99.90;;;;;;5050123;28;20104;-63
2021/11/04 11:00:20;;;;;;;91.38;37.35;;;8.70;99.90;;;;;;5054538;28;20031;-62
2021/11/04 11:03:01;;;;;;;110.10;42.22;;;8.70;99.90;;;;;;5046974;28;20420;-63
2021/11/04 11:05:35;;;;;;;97.10;37.92;;;8.80;99.90;;;;;;5055990;28;20017;-64
2021/11/04 11:08:02;;;;;;;91.30;35.85;;;8.90;99.90;;;;;;5070961;28;20027;-63
2021/11/04 11:10:27;;;;;;;88.40;34.75;;;9.10;99.90;;;;;;5062476;28;20042;-64
2021/11/04 11:12:53;;;;;;;90.55;34.25;;;9.10;99.90;;;;;;5054239;28;20035;-64
2021/11/04 11:15:19;;;;;;;81.57;34.70;;;9.20;99.90;;;;;;5054686;28;20519;-62
2021/11/04 11:17:47;;;;;;;73.65;32.55;;;9.30;99.90;;;;;;5067772;28;20490;-61
2021/11/04 11:20:14;;;;;;;75.32;32.78;;;9.40;99.90;;;;;;5061259;28;20028;-62
2021/11/04 11:22:42;;;;;;;65.60;29.58;;;9.50;99.90;;;;;;5051812;28;20518;-63
2021/11/04 11:25:07;;;;;;;63.70;26.80;;;9.50;99.90;;;;;;5051717;28;20052;-63
2021/11/04 11:27:33;;;;;;;68.97;27.95;;;9.50;99.90;;;;;;5053643;28;20028;-63
2021/11/04 11:29:59;;;;;;;54.65;24.88;;;9.60;99.90;;;;;;5059062;28;20556;-63
2021/11/04 11:32:29;;;;;;;58.75;23.60;;;9.60;99.90;;;;;;5066243;28;20028;-62
2021/11/04 11:35:17;;;;;;;60.03;28.83;;;9.70;99.90;;;;;;5058653;28;20037;-61
2021/11/04 11:37:55;;;;;;;66.85;28.15;;;9.70;99.90;;;;;;5071772;28;20115;-63
2021/11/04 11:40:25;;;;;;;67.13;30.20;;;9.80;99.90;;;;;;5059548;28;20098;-64
2021/11/04 11:43:05;;;;;;;61.92;27.75;;;9.80;99.90;;;;;;5050988;28;20017;-62
2021/11/04 11:45:34;;;;;;;63.63;28.85;;;9.80;99.90;;;;;;5056222;28;20501;-62
2021/11/04 11:48:17;;;;;;;65.13;29.50;;;9.70;99.90;;;;;;5071360;28;20094;-64
2021/11/04 11:50:43;;;;;;;64.22;28.27;;;9.80;99.90;;;;;;5052196;28;20039;-62
2021/11/04 11:53:25;;;;;;;65.45;30.83;;;9.80;99.90;;;;;;5058968;28;20028;-58
2021/11/04 11:56:01;;;;;;;67.13;29.67;;;9.80;99.90;;;;;;5051793;28;20027;-63
2021/11/04 11:58:36;;;;;;;66.53;31.85;;;9.80;99.90;;;;;;5061450;28;20024;-62
2021/11/04 12:01:07;;;;;;;77.13;31.88;;;9.70;99.90;;;;;;5054877;28;20029;-63
2021/11/04 12:03:37;;;;;;;71.43;32.78;;;9.70;99.90;;;;;;5049891;28;20483;-62
2021/11/04 12:06:12;;;;;;;71.05;32.85;;;9.70;99.90;;;;;;5054389;28;20036;-62
2021/11/04 12:08:40;;;;;;;83.82;35.05;;;9.60;99.90;;;;;;5060161;28;20021;-63
2021/11/04 12:11:08;;;;;;;73.10;34.55;;;9.70;99.90;;;;;;5058801;28;20502;-61
2021/11/04 12:13:41;;;;;;;73.97;35.13;;;9.70;99.90;;;;;;5049195;28;20116;-62
2021/11/04 12:16:13;;;;;;;73.85;34.17;;;9.60;99.90;;;;;;5055126;28;20433;-63
2021/11/04 12:18:56;;;;;;;68.47;34.38;;;9.70;99.90;;;;;;5050917;28;20029;-64
2021/11/04 12:21:33;;;;;;;76.88;36.42;;;9.70;99.90;;;;;;5043801;28;20040;-64
2021/11/04 12:24:02;;;;;;;70.90;34.25;;;9.70;99.90;;;;;;5043045;28;20124;-63
2021/11/04 12:26:34;;;;;;;66.20;34.08;;;9.80;99.90;;;;;;5052184;28;20056;-63
2021/11/04 12:29:02;;;;;;;74.07;34.50;;;9.90;99.90;;;;;;5049799;28;20070;-63
2021/11/04 12:31:29;;;;;;;75.60;37.55;;;10.00;99.90;;;;;;5038717;28;20047;-63
2021/11/04 12:34:00;;;;;;;70.80;35.00;;;9.90;99.90;;;;;;5049556;28;20017;-63
2021/11/04 12:36:35;;;;;;;73.53;35.45;;;10.10;99.90;;;;;;5048646;28;20031;-62